createdAt,value
2019-05-10T00:00:18.305Z,10.70
2019-05-10T00:03:05.518Z,10.70
2019-05-10T00:05:52.429Z,10.70
2019-05-10T00:08:39.788Z,10.70
2019-05-10T00:11:34.563Z,10.80
2019-05-10T00:14:13.988Z,10.70
2019-05-10T00:16:43.787Z,10.50
2019-05-10T00:19:13.700Z,10.40
2019-05-10T00:21:42.955Z,10.30
2019-05-10T00:24:12.526Z,10.30
2019-05-10T00:26:41.867Z,10.20
2019-05-10T00:29:11.112Z,10.20
2019-05-10T00:31:40.544Z,10.20
2019-05-10T00:34:10.702Z,10.20
2019-05-10T00:36:40.263Z,10.20
2019-05-10T00:39:09.502Z,10.20
2019-05-10T00:41:39.095Z,10.20
2019-05-10T00:44:08.256Z,10.20
2019-05-10T00:46:37.425Z,10.20
2019-05-10T00:49:06.586Z,10.20
2019-05-10T00:51:36.135Z,10.20
2019-05-10T00:54:05.382Z,10.20
2019-05-10T00:56:34.615Z,10.20
2019-05-10T00:59:04.063Z,10.20
2019-05-10T01:01:33.387Z,10.20
2019-05-10T01:04:02.661Z,10.20
2019-05-10T01:06:31.889Z,10.20
2019-05-10T01:09:01.402Z,10.20
2019-05-10T01:11:30.984Z,10.20
2019-05-10T01:14:00.145Z,10.20
2019-05-10T01:16:29.309Z,10.20
2019-05-10T01:18:58.477Z,10.20
2019-05-10T01:21:28.103Z,10.20
2019-05-10T01:23:57.715Z,10.20
2019-05-10T01:26:26.949Z,10.20
2019-05-10T01:28:56.137Z,10.20
2019-05-10T01:31:25.601Z,10.20
2019-05-10T01:33:54.887Z,10.20
2019-05-10T01:36:24.778Z,10.20
2019-05-10T01:38:54.323Z,10.20
2019-05-10T01:41:23.509Z,10.20
2019-05-10T01:43:52.676Z,10.20
2019-05-10T01:46:22.257Z,10.20
2019-05-10T01:48:51.435Z,10.20
2019-05-10T01:51:20.660Z,10.20
2019-05-10T01:53:50.149Z,10.20
2019-05-10T01:56:19.291Z,10.20
2019-05-10T01:58:48.469Z,10.30
2019-05-10T02:01:17.709Z,10.30
2019-05-10T02:03:46.920Z,10.30
2019-05-10T02:06:16.085Z,10.30
2019-05-10T02:08:45.303Z,10.30
2019-05-10T02:11:14.925Z,10.20
2019-05-10T02:13:44.095Z,10.20
2019-05-10T02:16:13.339Z,10.20
2019-05-10T02:18:42.596Z,10.20
2019-05-10T02:21:12.168Z,10.30
2019-05-10T02:23:41.336Z,10.30
2019-05-10T02:26:10.596Z,10.30
2019-05-10T02:28:40.280Z,10.30
2019-05-10T02:31:09.994Z,10.30
2019-05-10T02:33:39.249Z,10.30
2019-05-10T02:36:08.493Z,10.30
2019-05-10T02:38:37.779Z,10.30
2019-05-10T02:41:07.555Z,10.30
2019-05-10T02:43:36.795Z,10.30
2019-05-10T02:46:06.055Z,10.30
2019-05-10T02:48:35.317Z,10.30
2019-05-10T02:51:04.906Z,10.30
2019-05-10T02:53:34.376Z,10.30
2019-05-10T02:56:04.212Z,10.30
2019-05-10T02:58:34.254Z,10.20
2019-05-10T03:01:05.805Z,10.10
2019-05-10T03:03:38.495Z,10.10
2019-05-10T03:06:08.406Z,10.00
2019-05-10T03:08:50.844Z,10.00
2019-05-10T03:11:20.750Z,9.90
2019-05-10T03:13:52.100Z,9.90
2019-05-10T03:16:23.341Z,9.90
2019-05-10T03:18:53.787Z,9.90
2019-05-10T03:21:24.095Z,9.90
2019-05-10T03:23:54.006Z,9.90
2019-05-10T03:26:23.243Z,9.90
2019-05-10T03:28:52.525Z,9.90
2019-05-10T03:31:22.128Z,9.90
2019-05-10T03:33:56.273Z,9.90
2019-05-10T03:36:22.654Z,9.90
2019-05-10T03:38:52.070Z,9.90
2019-05-10T03:41:21.761Z,9.90
2019-05-10T03:43:51.391Z,9.90
2019-05-10T03:46:20.632Z,9.90
2019-05-10T03:48:50.276Z,9.80
2019-05-10T03:51:19.519Z,9.80
2019-05-10T03:53:48.869Z,9.80
2019-05-10T03:56:18.398Z,9.80
2019-05-10T03:58:47.715Z,9.70
2019-05-10T04:01:17.377Z,9.70
2019-05-10T04:03:46.558Z,9.70
2019-05-10T04:06:15.802Z,9.80
2019-05-10T04:08:45.075Z,9.80
2019-05-10T04:11:14.227Z,9.80
2019-05-10T04:13:43.466Z,9.80
2019-05-10T04:16:12.809Z,9.70
2019-05-10T04:18:41.978Z,9.70
2019-05-10T04:21:11.321Z,9.70
2019-05-10T04:23:40.923Z,9.80
2019-05-10T04:26:10.531Z,9.70
2019-05-10T04:28:39.780Z,9.70
2019-05-10T04:31:09.045Z,9.70
2019-05-10T04:33:38.561Z,9.70
2019-05-10T04:36:12.429Z,9.70
2019-05-10T04:38:39.002Z,9.70
2019-05-10T04:41:08.277Z,9.70
2019-05-10T04:43:37.807Z,9.70
2019-05-10T04:46:07.045Z,9.70
2019-05-10T04:48:36.500Z,9.70
2019-05-10T04:51:06.109Z,9.70
2019-05-10T04:53:35.401Z,9.70
2019-05-10T04:56:05.284Z,9.80
2019-05-10T04:58:34.527Z,9.80
2019-05-10T05:01:04.115Z,9.80
2019-05-10T05:03:33.284Z,9.80
2019-05-10T05:06:02.834Z,9.80
2019-05-10T05:08:32.335Z,9.80
2019-05-10T05:11:01.607Z,9.80
2019-05-10T05:13:31.195Z,9.80
2019-05-10T05:16:00.378Z,9.90
2019-05-10T05:18:29.777Z,9.90
2019-05-10T05:20:59.384Z,9.90
2019-05-10T05:23:28.885Z,10.00
2019-05-10T05:25:58.483Z,10.10
2019-05-10T05:28:27.818Z,10.10
2019-05-10T05:30:56.982Z,10.20
2019-05-10T05:33:26.256Z,10.20
2019-05-10T05:35:55.522Z,10.20
2019-05-10T05:38:24.823Z,10.30
2019-05-10T05:40:54.070Z,10.30
2019-05-10T05:43:23.495Z,10.30
2019-05-10T05:45:52.772Z,10.30
2019-05-10T05:48:23.087Z,10.30
2019-05-10T05:50:53.317Z,10.20
2019-05-10T05:53:22.802Z,10.20
2019-05-10T05:55:52.050Z,10.20
2019-05-10T05:58:26.864Z,10.20
2019-05-10T06:00:52.229Z,10.20
2019-05-10T06:03:27.583Z,10.30
2019-05-10T06:05:52.729Z,10.30
2019-05-10T06:08:24.822Z,10.20
2019-05-10T06:10:57.718Z,10.20
2019-05-10T06:13:30.147Z,10.10
2019-05-10T06:16:00.119Z,10.10
2019-05-10T06:18:27.835Z,10.00
2019-05-10T06:20:57.050Z,10.00
2019-05-10T06:23:29.035Z,9.90
2019-05-10T06:25:57.851Z,9.90
2019-05-10T06:28:55.191Z,9.90
2019-05-10T06:30:58.436Z,9.90
2019-05-10T06:33:28.775Z,9.80
2019-05-10T06:35:58.138Z,9.90
2019-05-10T06:38:27.414Z,9.90
2019-05-10T06:40:56.682Z,9.90
2019-05-10T06:43:26.056Z,10.10
2019-05-10T06:45:55.881Z,10.10
2019-05-10T06:48:29.598Z,10.20
2019-05-10T06:50:57.158Z,10.30
2019-05-10T06:53:26.372Z,10.30
2019-05-10T06:55:55.684Z,10.40
2019-05-10T06:58:25.264Z,10.40
2019-05-10T07:00:54.796Z,10.50
2019-05-10T07:03:24.068Z,10.50
2019-05-10T07:05:53.264Z,10.50
2019-05-10T07:08:22.908Z,10.50
2019-05-10T07:10:52.406Z,10.50
2019-05-10T07:13:21.721Z,10.40
2019-05-10T07:15:51.149Z,10.40
2019-05-10T07:18:22.668Z,10.30
2019-05-10T07:20:51.548Z,10.20
2019-05-10T07:23:20.933Z,10.10
2019-05-10T07:25:50.130Z,10.10
2019-05-10T07:28:19.409Z,10.10
2019-05-10T07:30:48.817Z,10.10
2019-05-10T07:33:18.024Z,10.10
2019-05-10T07:35:48.636Z,10.00
2019-05-10T07:38:23.500Z,9.90
2019-05-10T07:40:49.202Z,9.80
2019-05-10T07:43:26.332Z,9.80
2019-05-10T07:45:50.427Z,9.70
2019-05-10T07:48:23.048Z,9.60
2019-05-10T07:50:51.982Z,9.50
2019-05-10T07:53:22.990Z,9.20
2019-05-10T07:55:52.249Z,9.10
2019-05-10T07:58:21.494Z,8.90
2019-05-10T08:00:51.155Z,8.80
2019-05-10T08:03:23.626Z,8.80
2019-05-10T08:05:56.934Z,8.70
2019-05-10T08:08:24.547Z,8.70
2019-05-10T08:10:54.383Z,8.70
2019-05-10T08:13:25.284Z,8.80
2019-05-10T08:15:55.015Z,8.80
2019-05-10T08:18:25.537Z,8.80
2019-05-10T08:21:01.980Z,8.70
2019-05-10T08:23:28.007Z,8.80
2019-05-10T08:25:57.425Z,8.90
2019-05-10T08:28:27.835Z,9.10
2019-05-10T08:30:59.095Z,9.20
2019-05-10T08:33:28.349Z,9.30
2019-05-10T08:36:00.545Z,9.30
2019-05-10T08:38:28.491Z,9.20
2019-05-10T08:40:57.693Z,9.30
2019-05-10T08:43:30.743Z,9.50
2019-05-10T08:45:58.428Z,9.60
2019-05-10T08:48:28.037Z,9.50
2019-05-10T08:51:02.034Z,9.50
2019-05-10T08:53:28.547Z,9.40
2019-05-10T08:55:58.962Z,9.40
2019-05-10T08:58:36.773Z,9.70
2019-05-10T09:01:14.628Z,9.80
2019-05-10T09:03:32.166Z,10.00
2019-05-10T09:06:05.380Z,10.10
2019-05-10T09:08:34.761Z,9.90
2019-05-10T09:11:06.661Z,10.00
2019-05-10T09:13:40.842Z,10.20
2019-05-10T09:16:06.465Z,10.80
2019-05-10T09:18:38.081Z,10.90
2019-05-10T09:21:08.861Z,10.80
2019-05-10T09:23:38.161Z,11.10
2019-05-10T09:26:10.095Z,11.70
2019-05-10T09:28:39.152Z,12.00
2019-05-10T09:31:18.785Z,12.60
2019-05-10T09:33:43.399Z,12.70
2019-05-10T09:36:12.491Z,12.60
2019-05-10T09:38:44.181Z,12.70
2019-05-10T09:41:13.174Z,13.10
2019-05-10T09:43:48.353Z,13.20
2019-05-10T09:46:14.112Z,13.00
2019-05-10T09:48:45.056Z,12.80
2019-05-10T09:51:19.220Z,12.30
2019-05-10T09:53:48.563Z,12.00
2019-05-10T09:56:17.369Z,12.00
2019-05-10T09:58:48.183Z,12.10
2019-05-10T10:01:21.475Z,12.20
2019-05-10T10:03:49.181Z,12.30
2019-05-10T10:06:18.714Z,12.70
2019-05-10T10:08:51.927Z,13.30
2019-05-10T10:11:19.621Z,13.60
2019-05-10T10:13:57.114Z,13.30
2019-05-10T10:16:20.157Z,12.90
2019-05-10T10:18:49.356Z,12.50
2019-05-10T10:21:30.598Z,12.10
2019-05-10T10:23:50.321Z,11.80
2019-05-10T10:26:22.293Z,11.70
2019-05-10T10:28:55.303Z,11.60
2019-05-10T10:31:29.636Z,11.40
2019-05-10T10:33:58.232Z,11.30
2019-05-10T10:36:23.789Z,11.30
2019-05-10T10:38:53.002Z,11.40
2019-05-10T10:41:27.185Z,11.60
2019-05-10T10:43:53.622Z,12.00
2019-05-10T10:46:22.958Z,12.60
2019-05-10T10:48:52.280Z,12.90
2019-05-10T10:51:21.508Z,13.20
2019-05-10T10:53:54.127Z,13.50
2019-05-10T10:56:22.114Z,13.80
2019-05-10T10:58:51.372Z,13.90
2019-05-10T11:01:25.410Z,13.90
2019-05-10T11:03:51.932Z,13.90
2019-05-10T11:06:21.248Z,14.30
2019-05-10T11:08:51.858Z,14.40
2019-05-10T11:11:21.243Z,14.00
2019-05-10T11:13:58.770Z,14.00
2019-05-10T11:16:21.465Z,14.10
2019-05-10T11:18:51.953Z,14.20
2019-05-10T11:21:23.331Z,14.20
2019-05-10T11:23:52.257Z,14.50
2019-05-10T11:26:26.740Z,14.90
2019-05-10T11:28:53.328Z,14.80
2019-05-10T11:31:22.594Z,14.90
2019-05-10T11:33:53.826Z,14.90
2019-05-10T11:36:22.832Z,15.10
2019-05-10T11:38:58.307Z,15.30
2019-05-10T11:41:24.653Z,15.30
2019-05-10T11:43:58.063Z,15.10
2019-05-10T11:46:27.930Z,14.90
2019-05-10T11:48:56.577Z,14.60
2019-05-10T11:51:25.767Z,14.40
2019-05-10T11:53:59.522Z,14.20
2019-05-10T11:56:27.818Z,14.00
2019-05-10T11:58:57.373Z,13.90
2019-05-10T12:01:26.606Z,14.00
2019-05-10T12:03:55.874Z,14.10
2019-05-10T12:06:25.465Z,14.10
2019-05-10T12:09:01.207Z,14.30
2019-05-10T12:11:33.314Z,14.40
2019-05-10T12:13:57.480Z,14.30
2019-05-10T12:16:27.272Z,14.40
2019-05-10T12:19:14.998Z,14.30
2019-05-10T12:21:32.252Z,14.40
2019-05-10T12:24:10.593Z,14.60
2019-05-10T12:29:11.649Z,14.70
2019-05-10T12:31:33.035Z,14.80
2019-05-10T12:34:09.092Z,15.20
2019-05-10T12:36:33.471Z,15.50
2019-05-10T12:39:02.826Z,15.40
2019-05-10T12:41:31.987Z,15.50
2019-05-10T12:44:03.930Z,15.30
2019-05-10T12:46:32.165Z,15.30
2019-05-10T12:49:02.171Z,15.40
2019-05-10T12:51:32.401Z,15.30
2019-05-10T12:54:01.604Z,15.20
2019-05-10T12:56:34.799Z,15.10
2019-05-10T12:59:02.009Z,14.60
2019-05-10T13:01:33.133Z,14.10
2019-05-10T13:04:13.749Z,13.40
2019-05-10T13:06:34.090Z,13.00
2019-05-10T13:09:05.804Z,12.90
2019-05-10T13:11:35.683Z,12.90
2019-05-10T13:14:07.151Z,12.90
2019-05-10T13:16:36.539Z,13.10
2019-05-10T13:19:14.280Z,13.40
2019-05-10T13:21:41.892Z,13.80
2019-05-10T13:24:11.141Z,14.00
2019-05-10T13:26:40.865Z,14.30
2019-05-10T13:29:10.543Z,14.50
2019-05-10T13:31:42.871Z,14.60
2019-05-10T13:34:11.558Z,14.60
2019-05-10T13:36:41.367Z,14.80
2019-05-10T13:39:10.724Z,15.10
2019-05-10T13:41:40.247Z,15.10
2019-05-10T13:44:09.525Z,15.20
2019-05-10T13:46:39.066Z,15.30
2019-05-10T13:49:08.569Z,15.20
2019-05-10T13:51:38.067Z,15.20
2019-05-10T13:54:07.797Z,15.30
2019-05-10T13:56:37.142Z,15.30
2019-05-10T13:59:15.635Z,15.50
2019-05-10T14:01:38.299Z,15.50
2019-05-10T14:04:07.663Z,15.40
2019-05-10T14:06:37.301Z,15.40
2019-05-10T14:09:07.726Z,15.50
2019-05-10T14:11:40.548Z,15.40
2019-05-10T14:14:14.353Z,15.40
2019-05-10T14:16:39.737Z,15.20
2019-05-10T14:19:08.982Z,15.00
2019-05-10T14:21:38.228Z,14.90
2019-05-10T14:24:09.200Z,14.80
2019-05-10T14:26:38.410Z,14.90
2019-05-10T14:29:10.776Z,14.80
2019-05-10T14:31:38.731Z,14.70
2019-05-10T14:34:15.859Z,14.70
2019-05-10T14:36:40.923Z,14.90
2019-05-10T14:39:10.615Z,15.00
2019-05-10T14:41:40.214Z,15.20
2019-05-10T14:44:09.689Z,15.20
2019-05-10T14:46:39.378Z,15.30
2019-05-10T14:49:09.824Z,15.40
2019-05-10T14:51:56.601Z,15.30
2019-05-10T14:54:10.562Z,15.30
2019-05-10T14:56:39.936Z,15.30
2019-05-10T14:59:09.222Z,15.40
2019-05-10T15:01:42.874Z,15.30
2019-05-10T15:04:09.770Z,15.30
2019-05-10T15:06:39.144Z,15.20
2019-05-10T15:09:20.389Z,15.10
2019-05-10T15:11:41.065Z,15.10
2019-05-10T15:14:10.696Z,15.10
2019-05-10T15:16:40.086Z,15.00
2019-05-10T15:19:09.819Z,15.10
2019-05-10T15:21:39.202Z,15.40
2019-05-10T15:24:08.383Z,15.50
2019-05-10T15:26:43.996Z,15.50
2019-05-10T15:29:14.853Z,15.50
2019-05-10T15:31:40.178Z,15.50
2019-05-10T15:34:09.440Z,15.30
2019-05-10T15:36:38.704Z,15.40
2019-05-10T15:39:08.346Z,15.30
2019-05-10T15:41:37.660Z,15.30
2019-05-10T15:44:07.302Z,15.40
2019-05-10T15:46:41.885Z,15.50
2019-05-10T15:49:07.845Z,15.50
2019-05-10T15:51:37.314Z,15.40
2019-05-10T15:54:07.446Z,15.40
2019-05-10T15:56:41.594Z,15.30
2019-05-10T15:59:12.970Z,15.20
2019-05-10T16:01:39.587Z,15.20
2019-05-10T16:04:08.788Z,15.10
2019-05-10T16:06:39.419Z,15.00
2019-05-10T16:09:16.967Z,14.90
2019-05-10T16:11:40.843Z,14.80
2019-05-10T16:14:10.163Z,14.70
2019-05-10T16:16:39.760Z,14.50
2019-05-10T16:19:12.941Z,14.40
2019-05-10T16:21:40.117Z,14.30
2019-05-10T16:24:13.001Z,14.20
2019-05-10T16:26:41.059Z,14.20
2019-05-10T16:29:10.277Z,14.10
2019-05-10T16:31:40.362Z,14.00
2019-05-10T16:34:09.984Z,14.00
2019-05-10T16:36:39.661Z,14.00
2019-05-10T16:39:09.211Z,13.90
2019-05-10T16:41:38.494Z,13.90
2019-05-10T16:44:08.125Z,13.80
2019-05-10T16:46:37.366Z,13.70
2019-05-10T16:49:10.011Z,13.80
2019-05-10T16:51:42.321Z,13.70
2019-05-10T16:54:10.595Z,13.70
2019-05-10T16:56:40.168Z,13.60
2019-05-10T16:59:09.774Z,13.60
2019-05-10T17:01:39.043Z,13.50
2019-05-10T17:04:08.219Z,13.50
2019-05-10T17:06:40.536Z,13.40
2019-05-10T17:09:16.047Z,13.40
2019-05-10T17:11:41.410Z,13.40
2019-05-10T17:14:12.711Z,13.40
2019-05-10T17:16:41.586Z,13.40
2019-05-10T17:19:11.074Z,13.40
2019-05-10T17:21:40.300Z,13.30
2019-05-10T17:24:09.538Z,13.30
2019-05-10T17:26:38.900Z,13.30
2019-05-10T17:29:12.907Z,13.30
2019-05-10T17:31:39.688Z,13.30
2019-05-10T17:34:10.325Z,13.30
2019-05-10T17:36:39.631Z,13.30
2019-05-10T17:39:08.920Z,13.20
2019-05-10T17:41:38.198Z,13.10
2019-05-10T17:44:07.388Z,13.10
2019-05-10T17:46:36.644Z,13.10
2019-05-10T17:49:05.854Z,13.10
2019-05-10T17:51:35.662Z,13.10
2019-05-10T17:54:05.479Z,13.10
2019-05-10T17:56:38.869Z,13.00
2019-05-10T17:59:11.661Z,13.00
2019-05-10T18:01:36.786Z,13.00
2019-05-10T18:04:06.118Z,12.90
2019-05-10T18:06:35.638Z,12.80
2019-05-10T18:09:06.923Z,12.80
2019-05-10T18:11:36.778Z,12.70
2019-05-10T18:14:07.104Z,12.70
2019-05-10T18:16:36.480Z,12.70
2019-05-10T18:19:05.766Z,12.70
2019-05-10T18:21:35.088Z,12.70
2019-05-10T18:24:04.345Z,12.60
2019-05-10T18:26:34.227Z,12.60
2019-05-10T18:29:04.796Z,12.60
2019-05-10T18:31:33.988Z,12.60
2019-05-10T18:34:03.382Z,12.60
2019-05-10T18:36:50.512Z,12.50
2019-05-10T18:39:09.228Z,12.30
2019-05-10T18:41:41.393Z,12.30
2019-05-10T18:44:08.244Z,12.20
2019-05-10T18:46:37.481Z,12.20
2019-05-10T18:49:06.742Z,12.10
2019-05-10T18:51:36.472Z,12.00
2019-05-10T18:54:05.855Z,12.00
2019-05-10T18:56:35.347Z,12.00
2019-05-10T18:59:07.493Z,11.90
2019-05-10T19:01:38.622Z,11.90
2019-05-10T19:04:13.124Z,11.90
2019-05-10T19:06:37.818Z,12.00
2019-05-10T19:09:08.208Z,11.90
2019-05-10T19:11:38.930Z,12.00
2019-05-10T19:14:09.157Z,12.00
2019-05-10T19:16:38.710Z,12.00
2019-05-10T19:19:08.308Z,12.00
2019-05-10T19:21:38.211Z,12.00
2019-05-10T19:24:07.687Z,12.00
2019-05-10T19:26:36.950Z,12.00
2019-05-10T19:29:06.846Z,12.00
2019-05-10T19:31:38.186Z,11.90
2019-05-10T19:34:09.078Z,11.80
2019-05-10T19:36:38.951Z,11.80
2019-05-10T19:39:08.922Z,11.70
2019-05-10T19:41:38.292Z,11.70
2019-05-10T19:44:07.616Z,11.70
2019-05-10T19:46:39.696Z,11.70
2019-05-10T19:49:13.279Z,11.70
2019-05-10T19:51:42.162Z,11.70
2019-05-10T19:54:13.593Z,11.80
2019-05-10T19:56:42.182Z,11.70
2019-05-10T19:59:13.467Z,11.70
2019-05-10T20:01:45.082Z,11.60
2019-05-10T20:04:14.002Z,11.60
2019-05-10T20:06:43.980Z,11.60
2019-05-10T20:09:13.190Z,11.60
2019-05-10T20:11:42.507Z,11.50
2019-05-10T20:14:11.692Z,11.50
2019-05-10T20:16:52.165Z,11.50
2019-05-10T20:19:12.326Z,11.50
2019-05-10T20:21:42.080Z,11.50
2019-05-10T20:24:11.259Z,11.50
2019-05-10T20:26:40.521Z,11.50
2019-05-10T20:29:10.073Z,11.60
2019-05-10T20:31:39.707Z,11.60
2019-05-10T20:34:09.279Z,11.60
2019-05-10T20:36:38.464Z,11.60
2019-05-10T20:39:08.071Z,11.50
2019-05-10T20:41:37.405Z,11.50
2019-05-10T20:44:06.668Z,11.40
2019-05-10T20:46:35.953Z,11.40
2019-05-10T20:49:05.238Z,11.30
2019-05-10T20:51:34.595Z,11.20
2019-05-10T20:54:04.412Z,11.20
2019-05-10T20:56:34.132Z,11.30
2019-05-10T20:59:06.044Z,11.30
2019-05-10T21:01:35.628Z,11.30
2019-05-10T21:04:04.922Z,11.30
2019-05-10T21:06:34.513Z,11.30
2019-05-10T21:09:06.278Z,11.30
2019-05-10T21:11:35.846Z,11.30
2019-05-10T21:14:05.171Z,11.20
2019-05-10T21:16:34.524Z,11.10
2019-05-10T21:19:03.814Z,11.10
2019-05-10T21:21:33.006Z,11.10
2019-05-10T21:24:02.188Z,11.10
2019-05-10T21:26:31.544Z,11.10
2019-05-10T21:29:00.776Z,11.10
2019-05-10T21:31:30.353Z,11.10
2019-05-10T21:34:09.161Z,11.00
2019-05-10T21:36:31.515Z,11.00
2019-05-10T21:39:00.716Z,11.00
2019-05-10T21:41:30.288Z,11.00
2019-05-10T21:43:59.530Z,11.00
2019-05-10T21:46:28.820Z,11.00
2019-05-10T21:48:58.408Z,11.00
2019-05-10T21:51:27.663Z,10.90
2019-05-10T21:53:56.839Z,10.90
2019-05-10T21:56:26.094Z,10.90
2019-05-10T21:58:55.275Z,10.90
2019-05-10T22:01:24.765Z,10.80
2019-05-10T22:03:54.391Z,10.90
2019-05-10T22:06:23.638Z,10.90
2019-05-10T22:08:52.915Z,10.90
2019-05-10T22:11:22.160Z,10.80
2019-05-10T22:13:51.448Z,10.80
2019-05-10T22:16:20.741Z,10.80
2019-05-10T22:18:59.075Z,10.80
2019-05-10T22:21:28.440Z,10.90
2019-05-10T22:23:57.607Z,10.90
2019-05-10T22:26:27.019Z,10.90
2019-05-10T22:28:56.315Z,10.80
2019-05-10T22:31:25.799Z,10.80
2019-05-10T22:33:55.661Z,10.70
2019-05-10T22:36:24.903Z,10.60
2019-05-10T22:39:06.543Z,10.70
2019-05-10T22:41:25.683Z,10.60
2019-05-10T22:43:54.953Z,10.60
2019-05-10T22:46:24.658Z,10.50
2019-05-10T22:48:54.177Z,10.50
2019-05-10T22:51:23.359Z,10.50
2019-05-10T22:53:59.717Z,10.50
2019-05-10T22:56:23.518Z,10.50
2019-05-10T22:58:52.787Z,10.60
2019-05-10T23:01:22.124Z,10.60
2019-05-10T23:03:51.453Z,10.60
2019-05-10T23:06:20.619Z,10.50
2019-05-10T23:08:49.883Z,10.50
2019-05-10T23:11:19.116Z,10.50
2019-05-10T23:13:48.391Z,10.40
2019-05-10T23:16:17.639Z,10.50
2019-05-10T23:18:46.815Z,10.50
2019-05-10T23:21:16.019Z,10.50
2019-05-10T23:23:45.267Z,10.50
2019-05-10T23:26:14.462Z,10.50
2019-05-10T23:28:43.963Z,10.60
2019-05-10T23:31:13.601Z,10.60
2019-05-10T23:33:42.907Z,10.60
2019-05-10T23:36:12.089Z,10.60
2019-05-10T23:38:41.276Z,10.60
2019-05-10T23:41:10.529Z,10.60
2019-05-10T23:43:39.777Z,10.60
2019-05-10T23:46:09.319Z,10.60
2019-05-10T23:48:38.563Z,10.60
2019-05-10T23:51:07.814Z,10.60
2019-05-10T23:53:37.707Z,10.60
2019-05-10T23:56:06.893Z,10.60
2019-05-10T23:58:36.529Z,10.50
